sensor_id;sensor_type;location;lat;lon;timestamp;temperature;humidity
9537;DHT22;4807;48.024;11.726;2023-04-24T00:01:12;9.60;99.90
9537;DHT22;4807;48.024;11.726;2023-04-24T00:04:22;9.60;99.90
9537;DHT22;4807;48.024;11.726;2023-04-24T00:07:34;9.60;99.90
9537;DHT22;4807;48.024;11.726;2023-04-24T00:10:43;9.50;99.90
9537;DHT22;4807;48.024;11.726;2023-04-24T00:13:52;9.50;99.90
9537;DHT22;4807;48.024;11.726;2023-04-24T00:17:00;9.50;99.90
9537;DHT22;4807;48.024;11.726;2023-04-24T00:20:10;9.50;99.90
9537;DHT22;4807;48.024;11.726;2023-04-24T00:23:20;9.40;99.90
9537;DHT22;4807;48.024;11.726;2023-04-24T00:26:28;9.40;99.90
9537;DHT22;4807;48.024;11.726;2023-04-24T00:29:36;9.40;99.90
9537;DHT22;4807;48.024;11.726;2023-04-24T00:32:45;9.30;99.90
9537;DHT22;4807;48.024;11.726;2023-04-24T00:35:54;9.40;99.90
9537;DHT22;4807;48.024;11.726;2023-04-24T00:39:04;9.30;99.90
9537;DHT22;4807;48.024;11.726;2023-04-24T00:42:15;9.30;99.90
9537;DHT22;4807;48.024;11.726;2023-04-24T00:45:23;9.20;99.90
9537;DHT22;4807;48.024;11.726;2023-04-24T00:48:32;9.20;99.90
9537;DHT22;4807;48.024;11.726;2023-04-24T00:51:40;9.10;99.90
9537;DHT22;4807;48.024;11.726;2023-04-24T00:54:53;9.10;99.90
9537;DHT22;4807;48.024;11.726;2023-04-24T00:58:02;9.20;99.90
9537;DHT22;4807;48.024;11.726;2023-04-24T01:01:10;9.20;99.90
9537;DHT22;4807;48.024;11.726;2023-04-24T01:04:19;9.10;99.90
9537;DHT22;4807;48.024;11.726;2023-04-24T01:07:27;9.20;99.90
9537;DHT22;4807;48.024;11.726;2023-04-24T01:10:38;9.20;99.90
9537;DHT22;4807;48.024;11.726;2023-04-24T01:13:48;9.20;99.90
9537;DHT22;4807;48.024;11.726;2023-04-24T01:16:57;9.20;99.90
9537;DHT22;4807;48.024;11.726;2023-04-24T01:20:07;9.20;99.90
9537;DHT22;4807;48.024;11.726;2023-04-24T01:23:19;9.10;99.90
9537;DHT22;4807;48.024;11.726;2023-04-24T01:26:27;9.10;99.90
9537;DHT22;4807;48.024;11.726;2023-04-24T01:29:36;9.10;99.90
9537;DHT22;4807;48.024;11.726;2023-04-24T01:32:44;9.10;99.90
9537;DHT22;4807;48.024;11.726;2023-04-24T01:35:54;9.00;99.90
9537;DHT22;4807;48.024;11.726;2023-04-24T01:39:03;9.00;99.90
9537;DHT22;4807;48.024;11.726;2023-04-24T01:42:12;9.00;99.90
9537;DHT22;4807;48.024;11.726;2023-04-24T01:45:21;9.00;99.90
9537;DHT22;4807;48.024;11.726;2023-04-24T01:48:29;9.00;99.90
9537;DHT22;4807;48.024;11.726;2023-04-24T01:51:38;9.00;99.90
9537;DHT22;4807;48.024;11.726;2023-04-24T01:54:48;9.00;99.90
9537;DHT22;4807;48.024;11.726;2023-04-24T01:57:56;9.00;99.90
9537;DHT22;4807;48.024;11.726;2023-04-24T02:01:07;9.00;99.90
9537;DHT22;4807;48.024;11.726;2023-04-24T02:04:16;9.00;99.90
9537;DHT22;4807;48.024;11.726;2023-04-24T02:07:24;8.90;99.90
9537;DHT22;4807;48.024;11.726;2023-04-24T02:10:33;8.90;99.90
9537;DHT22;4807;48.024;11.726;2023-04-24T02:13:41;8.90;99.90
9537;DHT22;4807;48.024;11.726;2023-04-24T02:16:50;8.90;99.90
9537;DHT22;4807;48.024;11.726;2023-04-24T02:19:58;8.80;99.90
9537;DHT22;4807;48.024;11.726;2023-04-24T02:23:06;8.80;99.90
9537;DHT22;4807;48.024;11.726;2023-04-24T02:26:16;8.80;99.90
9537;DHT22;4807;48.024;11.726;2023-04-24T02:29:25;8.80;99.90
9537;DHT22;4807;48.024;11.726;2023-04-24T02:32:33;8.70;99.90
9537;DHT22;4807;48.024;11.726;2023-04-24T02:35:42;8.70;99.90
9537;DHT22;4807;48.024;11.726;2023-04-24T02:38:50;8.80;99.90
9537;DHT22;4807;48.024;11.726;2023-04-24T02:42:00;8.80;99.90
9537;DHT22;4807;48.024;11.726;2023-04-24T02:45:10;8.90;99.90
9537;DHT22;4807;48.024;11.726;2023-04-24T02:48:19;8.90;99.90
9537;DHT22;4807;48.024;11.726;2023-04-24T02:51:27;8.80;99.90
9537;DHT22;4807;48.024;11.726;2023-04-24T02:54:37;8.80;99.90
9537;DHT22;4807;48.024;11.726;2023-04-24T02:57:47;8.70;99.90
9537;DHT22;4807;48.024;11.726;2023-04-24T03:00:55;8.70;99.90
9537;DHT22;4807;48.024;11.726;2023-04-24T03:04:04;8.70;99.90
9537;DHT22;4807;48.024;11.726;2023-04-24T03:07:12;8.70;99.90
9537;DHT22;4807;48.024;11.726;2023-04-24T03:10:21;8.70;99.90
9537;DHT22;4807;48.024;11.726;2023-04-24T03:13:31;8.60;99.90
9537;DHT22;4807;48.024;11.726;2023-04-24T03:16:39;8.50;99.90
9537;DHT22;4807;48.024;11.726;2023-04-24T03:19:47;8.50;99.90
9537;DHT22;4807;48.024;11.726;2023-04-24T03:22:57;8.50;99.90
9537;DHT22;4807;48.024;11.726;2023-04-24T03:26:05;8.50;99.90
9537;DHT22;4807;48.024;11.726;2023-04-24T03:29:17;8.50;99.90
9537;DHT22;4807;48.024;11.726;2023-04-24T03:32:26;8.60;99.90
9537;DHT22;4807;48.024;11.726;2023-04-24T03:35:34;8.50;99.90
9537;DHT22;4807;48.024;11.726;2023-04-24T03:38:47;8.50;99.90
9537;DHT22;4807;48.024;11.726;2023-04-24T03:42:03;8.50;99.90
9537;DHT22;4807;48.024;11.726;2023-04-24T03:45:25;8.50;99.90
9537;DHT22;4807;48.024;11.726;2023-04-24T03:48:33;8.50;99.90
9537;DHT22;4807;48.024;11.726;2023-04-24T03:51:41;8.50;99.90
9537;DHT22;4807;48.024;11.726;2023-04-24T03:54:56;8.50;99.90
9537;DHT22;4807;48.024;11.726;2023-04-24T03:58:07;8.50;99.90
9537;DHT22;4807;48.024;11.726;2023-04-24T04:01:16;8.40;99.90
9537;DHT22;4807;48.024;11.726;2023-04-24T04:04:36;8.40;99.90
9537;DHT22;4807;48.024;11.726;2023-04-24T04:07:45;8.40;99.90
9537;DHT22;4807;48.024;11.726;2023-04-24T04:10:53;8.40;99.90
9537;DHT22;4807;48.024;11.726;2023-04-24T04:14:03;8.40;99.90
9537;DHT22;4807;48.024;11.726;2023-04-24T04:17:15;8.40;99.90
9537;DHT22;4807;48.024;11.726;2023-04-24T04:20:23;8.40;99.90
9537;DHT22;4807;48.024;11.726;2023-04-24T04:23:32;8.40;99.90
9537;DHT22;4807;48.024;11.726;2023-04-24T04:26:53;8.40;99.90
9537;DHT22;4807;48.024;11.726;2023-04-24T04:30:20;8.40;99.90
9537;DHT22;4807;48.024;11.726;2023-04-24T04:33:37;8.40;99.90
9537;DHT22;4807;48.024;11.726;2023-04-24T04:36:47;8.40;99.90
9537;DHT22;4807;48.024;11.726;2023-04-24T04:40:29;8.40;99.90
9537;DHT22;4807;48.024;11.726;2023-04-24T04:43:42;8.40;99.90
9537;DHT22;4807;48.024;11.726;2023-04-24T04:46:50;8.30;99.90
9537;DHT22;4807;48.024;11.726;2023-04-24T04:50:09;8.40;99.90
9537;DHT22;4807;48.024;11.726;2023-04-24T04:53:18;8.40;99.90
9537;DHT22;4807;48.024;11.726;2023-04-24T04:56:26;8.50;99.90
9537;DHT22;4807;48.024;11.726;2023-04-24T04:59:37;8.50;99.90
9537;DHT22;4807;48.024;11.726;2023-04-24T05:02:51;8.50;99.90
9537;DHT22;4807;48.024;11.726;2023-04-24T05:06:00;8.50;99.90
9537;DHT22;4807;48.024;11.726;2023-04-24T05:09:12;8.60;99.90
9537;DHT22;4807;48.024;11.726;2023-04-24T05:12:27;8.60;99.90
9537;DHT22;4807;48.024;11.726;2023-04-24T05:15:37;8.60;99.90
9537;DHT22;4807;48.024;11.726;2023-04-24T05:18:45;8.70;99.90
9537;DHT22;4807;48.024;11.726;2023-04-24T05:21:58;8.70;99.90
9537;DHT22;4807;48.024;11.726;2023-04-24T05:25:11;8.70;99.90
9537;DHT22;4807;48.024;11.726;2023-04-24T05:28:28;8.70;99.90
9537;DHT22;4807;48.024;11.726;2023-04-24T05:31:45;8.80;99.90
9537;DHT22;4807;48.024;11.726;2023-04-24T05:34:53;8.90;99.90
9537;DHT22;4807;48.024;11.726;2023-04-24T05:38:02;9.10;99.90
9537;DHT22;4807;48.024;11.726;2023-04-24T05:41:11;9.10;99.90
9537;DHT22;4807;48.024;11.726;2023-04-24T05:44:21;9.20;99.90
9537;DHT22;4807;48.024;11.726;2023-04-24T05:47:29;9.30;99.90
9537;DHT22;4807;48.024;11.726;2023-04-24T05:50:38;9.40;99.90
9537;DHT22;4807;48.024;11.726;2023-04-24T05:53:48;9.40;99.90
9537;DHT22;4807;48.024;11.726;2023-04-24T05:56:56;9.40;99.90
9537;DHT22;4807;48.024;11.726;2023-04-24T06:00:16;9.40;99.90
9537;DHT22;4807;48.024;11.726;2023-04-24T06:03:34;9.40;99.90
9537;DHT22;4807;48.024;11.726;2023-04-24T06:06:43;9.50;99.90
9537;DHT22;4807;48.024;11.726;2023-04-24T06:09:53;9.50;99.90
9537;DHT22;4807;48.024;11.726;2023-04-24T06:13:02;9.50;99.90
9537;DHT22;4807;48.024;11.726;2023-04-24T06:16:12;9.60;99.90
9537;DHT22;4807;48.024;11.726;2023-04-24T06:19:25;9.80;99.90
9537;DHT22;4807;48.024;11.726;2023-04-24T06:22:34;9.90;99.90
9537;DHT22;4807;48.024;11.726;2023-04-24T06:25:44;9.90;99.90
9537;DHT22;4807;48.024;11.726;2023-04-24T06:28:52;9.90;99.90
9537;DHT22;4807;48.024;11.726;2023-04-24T06:32:01;11.90;99.90
9537;DHT22;4807;48.024;11.726;2023-04-24T06:35:11;10.10;99.90
9537;DHT22;4807;48.024;11.726;2023-04-24T06:38:20;10.10;99.90
9537;DHT22;4807;48.024;11.726;2023-04-24T06:41:30;10.20;99.90
9537;DHT22;4807;48.024;11.726;2023-04-24T06:44:38;10.20;99.90
9537;DHT22;4807;48.024;11.726;2023-04-24T06:47:48;10.20;99.90
9537;DHT22;4807;48.024;11.726;2023-04-24T06:50:56;10.30;99.90
9537;DHT22;4807;48.024;11.726;2023-04-24T06:54:04;10.30;99.90
9537;DHT22;4807;48.024;11.726;2023-04-24T06:57:14;10.40;99.90
9537;DHT22;4807;48.024;11.726;2023-04-24T07:00:24;10.70;99.90
9537;DHT22;4807;48.024;11.726;2023-04-24T07:03:32;10.90;99.90
9537;DHT22;4807;48.024;11.726;2023-04-24T07:06:41;11.00;99.90
9537;DHT22;4807;48.024;11.726;2023-04-24T07:09:50;11.00;99.90
9537;DHT22;4807;48.024;11.726;2023-04-24T07:12:59;11.20;99.90
9537;DHT22;4807;48.024;11.726;2023-04-24T07:16:08;11.40;99.90
9537;DHT22;4807;48.024;11.726;2023-04-24T07:19:17;11.50;99.90
9537;DHT22;4807;48.024;11.726;2023-04-24T07:22:26;11.70;99.90
9537;DHT22;4807;48.024;11.726;2023-04-24T07:25:34;12.00;99.90
9537;DHT22;4807;48.024;11.726;2023-04-24T07:28:44;12.40;99.90
9537;DHT22;4807;48.024;11.726;2023-04-24T07:31:53;13.00;99.90
9537;DHT22;4807;48.024;11.726;2023-04-24T07:35:01;13.40;99.90
9537;DHT22;4807;48.024;11.726;2023-04-24T07:38:09;13.50;99.90
9537;DHT22;4807;48.024;11.726;2023-04-24T07:41:18;13.50;99.90
9537;DHT22;4807;48.024;11.726;2023-04-24T07:44:28;13.30;99.90
9537;DHT22;4807;48.024;11.726;2023-04-24T07:47:37;13.00;99.90
9537;DHT22;4807;48.024;11.726;2023-04-24T07:50:46;13.10;99.90
9537;DHT22;4807;48.024;11.726;2023-04-24T07:53:54;13.00;99.90
9537;DHT22;4807;48.024;11.726;2023-04-24T07:57:03;12.90;99.90
9537;DHT22;4807;48.024;11.726;2023-04-24T08:00:15;12.70;99.90
9537;DHT22;4807;48.024;11.726;2023-04-24T08:03:24;12.50;99.90
9537;DHT22;4807;48.024;11.726;2023-04-24T08:06:32;12.20;99.90
9537;DHT22;4807;48.024;11.726;2023-04-24T08:09:40;11.90;99.90
9537;DHT22;4807;48.024;11.726;2023-04-24T08:12:49;11.80;99.90
9537;DHT22;4807;48.024;11.726;2023-04-24T08:15:58;11.60;99.90
9537;DHT22;4807;48.024;11.726;2023-04-24T08:19:07;11.40;99.90
9537;DHT22;4807;48.024;11.726;2023-04-24T08:22:15;11.40;99.90
9537;DHT22;4807;48.024;11.726;2023-04-24T08:25:24;11.30;99.90
9537;DHT22;4807;48.024;11.726;2023-04-24T08:28:32;11.40;99.90
9537;DHT22;4807;48.024;11.726;2023-04-24T08:31:41;11.40;99.90
9537;DHT22;4807;48.024;11.726;2023-04-24T08:34:50;11.40;99.90
9537;DHT22;4807;48.024;11.726;2023-04-24T08:37:59;11.30;99.90
9537;DHT22;4807;48.024;11.726;2023-04-24T08:41:07;11.30;99.90
9537;DHT22;4807;48.024;11.726;2023-04-24T08:44:17;11.40;99.90
9537;DHT22;4807;48.024;11.726;2023-04-24T08:47:29;11.40;99.90
9537;DHT22;4807;48.024;11.726;2023-04-24T08:50:38;11.50;99.90
9537;DHT22;4807;48.024;11.726;2023-04-24T08:53:51;11.40;99.90
9537;DHT22;4807;48.024;11.726;2023-04-24T08:57:02;11.20;99.90
9537;DHT22;4807;48.024;11.726;2023-04-24T09:00:12;10.90;99.90
9537;DHT22;4807;48.024;11.726;2023-04-24T09:03:23;10.80;99.90
9537;DHT22;4807;48.024;11.726;2023-04-24T09:06:33;10.90;99.90
9537;DHT22;4807;48.024;11.726;2023-04-24T09:09:42;11.00;99.90
9537;DHT22;4807;48.024;11.726;2023-04-24T09:12:51;11.00;99.90
9537;DHT22;4807;48.024;11.726;2023-04-24T09:16:00;10.60;99.90
9537;DHT22;4807;48.024;11.726;2023-04-24T09:19:10;10.40;99.90
9537;DHT22;4807;48.024;11.726;2023-04-24T09:22:18;10.60;99.90
9537;DHT22;4807;48.024;11.726;2023-04-24T09:25:31;10.70;99.90
9537;DHT22;4807;48.024;11.726;2023-04-24T09:28:41;10.90;99.90
9537;DHT22;4807;48.024;11.726;2023-04-24T09:31:50;10.90;99.90
9537;DHT22;4807;48.024;11.726;2023-04-24T09:35:08;11.00;99.90
9537;DHT22;4807;48.024;11.726;2023-04-24T09:38:17;11.20;99.90
9537;DHT22;4807;48.024;11.726;2023-04-24T09:41:26;12.40;98.30
9537;DHT22;4807;48.024;11.726;2023-04-24T09:44:36;12.40;98.20
9537;DHT22;4807;48.024;11.726;2023-04-24T09:47:44;13.00;98.00
9537;DHT22;4807;48.024;11.726;2023-04-24T09:50:54;13.70;96.80
9537;DHT22;4807;48.024;11.726;2023-04-24T09:54:03;13.90;96.60
9537;DHT22;4807;48.024;11.726;2023-04-24T09:57:11;13.90;96.50
9537;DHT22;4807;48.024;11.726;2023-04-24T10:00:22;14.00;95.60
9537;DHT22;4807;48.024;11.726;2023-04-24T10:03:32;14.10;95.10
9537;DHT22;4807;48.024;11.726;2023-04-24T10:06:43;14.00;94.70
9537;DHT22;4807;48.024;11.726;2023-04-24T10:09:52;14.10;94.70
9537;DHT22;4807;48.024;11.726;2023-04-24T10:13:00;14.30;94.90
9537;DHT22;4807;48.024;11.726;2023-04-24T10:16:09;14.10;94.30
9537;DHT22;4807;48.024;11.726;2023-04-24T10:19:18;14.10;94.30
9537;DHT22;4807;48.024;11.726;2023-04-24T10:22:28;14.20;93.40
9537;DHT22;4807;48.024;11.726;2023-04-24T10:25:37;14.20;92.90
9537;DHT22;4807;48.024;11.726;2023-04-24T10:28:46;14.20;93.70
9537;DHT22;4807;48.024;11.726;2023-04-24T10:31:55;14.50;94.00
9537;DHT22;4807;48.024;11.726;2023-04-24T10:35:05;14.50;92.80
9537;DHT22;4807;48.024;11.726;2023-04-24T10:38:18;14.20;94.00
9537;DHT22;4807;48.024;11.726;2023-04-24T10:41:32;14.30;92.60
9537;DHT22;4807;48.024;11.726;2023-04-24T10:44:41;14.40;93.50
9537;DHT22;4807;48.024;11.726;2023-04-24T10:47:56;14.30;92.30
9537;DHT22;4807;48.024;11.726;2023-04-24T10:51:11;14.50;91.70
9537;DHT22;4807;48.024;11.726;2023-04-24T10:54:27;14.50;92.50
9537;DHT22;4807;48.024;11.726;2023-04-24T10:57:37;14.40;91.90
9537;DHT22;4807;48.024;11.726;2023-04-24T11:00:55;14.00;91.80
9537;DHT22;4807;48.024;11.726;2023-04-24T11:04:05;13.70;91.70
9537;DHT22;4807;48.024;11.726;2023-04-24T11:07:17;13.30;91.90
9537;DHT22;4807;48.024;11.726;2023-04-24T11:10:30;12.80;94.80
9537;DHT22;4807;48.024;11.726;2023-04-24T11:14:13;11.80;97.10
9537;DHT22;4807;48.024;11.726;2023-04-24T11:17:32;11.40;99.60
9537;DHT22;4807;48.024;11.726;2023-04-24T11:20:42;11.10;99.00
9537;DHT22;4807;48.024;11.726;2023-04-24T11:23:51;11.20;99.20
9537;DHT22;4807;48.024;11.726;2023-04-24T11:27:07;11.60;99.80
9537;DHT22;4807;48.024;11.726;2023-04-24T11:30:21;12.20;96.90
9537;DHT22;4807;48.024;11.726;2023-04-24T11:33:31;12.60;98.10
9537;DHT22;4807;48.024;11.726;2023-04-24T11:36:42;13.10;95.70
9537;DHT22;4807;48.024;11.726;2023-04-24T11:39:52;13.10;96.60
9537;DHT22;4807;48.024;11.726;2023-04-24T11:43:04;13.30;95.50
9537;DHT22;4807;48.024;11.726;2023-04-24T11:46:18;13.10;94.50
9537;DHT22;4807;48.024;11.726;2023-04-24T11:49:28;13.00;95.50
9537;DHT22;4807;48.024;11.726;2023-04-24T11:52:38;13.20;94.90
9537;DHT22;4807;48.024;11.726;2023-04-24T11:55:47;13.60;94.60
9537;DHT22;4807;48.024;11.726;2023-04-24T11:58:57;14.10;93.80
9537;DHT22;4807;48.024;11.726;2023-04-24T12:02:05;14.70;93.60
9537;DHT22;4807;48.024;11.726;2023-04-24T12:05:19;15.00;90.70
9537;DHT22;4807;48.024;11.726;2023-04-24T12:08:31;14.80;90.80
9537;DHT22;4807;48.024;11.726;2023-04-24T12:11:52;15.00;92.30
9537;DHT22;4807;48.024;11.726;2023-04-24T12:15:08;15.00;90.20
9537;DHT22;4807;48.024;11.726;2023-04-24T12:18:17;14.40;90.20
9537;DHT22;4807;48.024;11.726;2023-04-24T12:21:25;12.90;94.10
9537;DHT22;4807;48.024;11.726;2023-04-24T12:24:56;12.80;94.70
9537;DHT22;4807;48.024;11.726;2023-04-24T12:28:09;10.20;99.90
9537;DHT22;4807;48.024;11.726;2023-04-24T12:31:21;9.00;99.90
9537;DHT22;4807;48.024;11.726;2023-04-24T12:34:31;9.00;99.90
9537;DHT22;4807;48.024;11.726;2023-04-24T12:37:42;9.00;99.90
9537;DHT22;4807;48.024;11.726;2023-04-24T12:41:02;9.10;99.90
9537;DHT22;4807;48.024;11.726;2023-04-24T12:44:11;9.10;99.90
9537;DHT22;4807;48.024;11.726;2023-04-24T12:47:21;9.30;99.90
9537;DHT22;4807;48.024;11.726;2023-04-24T12:50:29;9.60;99.90
9537;DHT22;4807;48.024;11.726;2023-04-24T12:53:38;10.00;99.90
9537;DHT22;4807;48.024;11.726;2023-04-24T12:56:48;10.10;99.90
9537;DHT22;4807;48.024;11.726;2023-04-24T12:59:58;10.00;99.90
9537;DHT22;4807;48.024;11.726;2023-04-24T13:03:08;9.90;99.90
9537;DHT22;4807;48.024;11.726;2023-04-24T13:06:17;9.80;99.90
9537;DHT22;4807;48.024;11.726;2023-04-24T13:09:25;9.80;99.90
9537;DHT22;4807;48.024;11.726;2023-04-24T13:12:34;9.70;99.90
9537;DHT22;4807;48.024;11.726;2023-04-24T13:15:43;9.80;99.90
9537;DHT22;4807;48.024;11.726;2023-04-24T13:18:52;10.00;99.90
9537;DHT22;4807;48.024;11.726;2023-04-24T13:22:01;10.30;99.90
9537;DHT22;4807;48.024;11.726;2023-04-24T13:25:09;10.70;99.90
9537;DHT22;4807;48.024;11.726;2023-04-24T13:28:18;11.20;99.90
9537;DHT22;4807;48.024;11.726;2023-04-24T13:31:26;12.20;99.90
9537;DHT22;4807;48.024;11.726;2023-04-24T13:34:36;12.20;99.90
9537;DHT22;4807;48.024;11.726;2023-04-24T13:37:45;12.70;99.90
9537;DHT22;4807;48.024;11.726;2023-04-24T13:40:53;12.90;99.90
9537;DHT22;4807;48.024;11.726;2023-04-24T13:44:01;13.00;99.90
9537;DHT22;4807;48.024;11.726;2023-04-24T13:47:10;13.10;99.70
9537;DHT22;4807;48.024;11.726;2023-04-24T13:50:21;13.30;99.40
9537;DHT22;4807;48.024;11.726;2023-04-24T13:53:30;13.00;98.30
9537;DHT22;4807;48.024;11.726;2023-04-24T13:56:39;12.90;98.40
9537;DHT22;4807;48.024;11.726;2023-04-24T13:59:48;12.20;97.40
9537;DHT22;4807;48.024;11.726;2023-04-24T14:02:56;11.60;98.90
9537;DHT22;4807;48.024;11.726;2023-04-24T14:06:06;11.10;99.90
9537;DHT22;4807;48.024;11.726;2023-04-24T14:09:15;10.90;99.90
9537;DHT22;4807;48.024;11.726;2023-04-24T14:12:23;10.90;99.90
9537;DHT22;4807;48.024;11.726;2023-04-24T14:15:32;11.00;99.90
9537;DHT22;4807;48.024;11.726;2023-04-24T14:18:41;11.30;99.90
9537;DHT22;4807;48.024;11.726;2023-04-24T14:21:50;11.80;99.30
9537;DHT22;4807;48.024;11.726;2023-04-24T14:24:59;12.10;98.40
9537;DHT22;4807;48.024;11.726;2023-04-24T14:28:07;12.30;98.10
9537;DHT22;4807;48.024;11.726;2023-04-24T14:31:15;12.50;97.70
9537;DHT22;4807;48.024;11.726;2023-04-24T14:34:24;12.60;98.10
9537;DHT22;4807;48.024;11.726;2023-04-24T14:37:33;12.50;97.40
9537;DHT22;4807;48.024;11.726;2023-04-24T14:40:42;12.50;97.50
9537;DHT22;4807;48.024;11.726;2023-04-24T14:44:11;12.50;97.10
9537;DHT22;4807;48.024;11.726;2023-04-24T14:47:19;12.40;97.30
9537;DHT22;4807;48.024;11.726;2023-04-24T14:50:28;12.40;97.50
9537;DHT22;4807;48.024;11.726;2023-04-24T14:53:38;12.40;96.10
9537;DHT22;4807;48.024;11.726;2023-04-24T14:56:47;12.70;96.30
9537;DHT22;4807;48.024;11.726;2023-04-24T14:59:55;12.90;94.80
9537;DHT22;4807;48.024;11.726;2023-04-24T15:03:04;13.00;94.30
9537;DHT22;4807;48.024;11.726;2023-04-24T15:06:13;13.10;92.90
9537;DHT22;4807;48.024;11.726;2023-04-24T15:09:24;13.10;92.90
9537;DHT22;4807;48.024;11.726;2023-04-24T15:12:33;13.10;91.60
9537;DHT22;4807;48.024;11.726;2023-04-24T15:15:41;13.00;91.60
9537;DHT22;4807;48.024;11.726;2023-04-24T15:18:50;12.90;91.50
9537;DHT22;4807;48.024;11.726;2023-04-24T15:21:59;13.00;92.30
9537;DHT22;4807;48.024;11.726;2023-04-24T15:25:10;13.20;91.90
9537;DHT22;4807;48.024;11.726;2023-04-24T15:28:18;13.20;87.80
9537;DHT22;4807;48.024;11.726;2023-04-24T15:31:28;12.90;91.60
9537;DHT22;4807;48.024;11.726;2023-04-24T15:34:36;12.90;92.20
9537;DHT22;4807;48.024;11.726;2023-04-24T15:37:45;13.10;90.50
9537;DHT22;4807;48.024;11.726;2023-04-24T15:40:54;13.00;89.30
9537;DHT22;4807;48.024;11.726;2023-04-24T15:44:03;12.60;90.00
9537;DHT22;4807;48.024;11.726;2023-04-24T15:47:12;12.60;90.00
9537;DHT22;4807;48.024;11.726;2023-04-24T15:50:21;12.40;90.00
9537;DHT22;4807;48.024;11.726;2023-04-24T15:53:29;12.30;90.80
9537;DHT22;4807;48.024;11.726;2023-04-24T15:56:39;12.30;90.80
9537;DHT22;4807;48.024;11.726;2023-04-24T15:59:48;12.30;89.00
9537;DHT22;4807;48.024;11.726;2023-04-24T16:02:56;12.30;90.30
9537;DHT22;4807;48.024;11.726;2023-04-24T16:06:05;12.60;90.00
9537;DHT22;4807;48.024;11.726;2023-04-24T16:09:13;12.80;89.40
9537;DHT22;4807;48.024;11.726;2023-04-24T16:12:23;12.70;88.30
9537;DHT22;4807;48.024;11.726;2023-04-24T16:15:33;12.50;86.70
9537;DHT22;4807;48.024;11.726;2023-04-24T16:18:44;12.30;88.80
9537;DHT22;4807;48.024;11.726;2023-04-24T16:21:54;12.00;89.10
9537;DHT22;4807;48.024;11.726;2023-04-24T16:25:04;12.00;90.20
9537;DHT22;4807;48.024;11.726;2023-04-24T16:28:15;12.00;87.30
9537;DHT22;4807;48.024;11.726;2023-04-24T16:31:23;12.00;86.50
9537;DHT22;4807;48.024;11.726;2023-04-24T16:34:32;12.00;87.30
9537;DHT22;4807;48.024;11.726;2023-04-24T16:37:41;12.10;87.90
9537;DHT22;4807;48.024;11.726;2023-04-24T16:40:49;12.30;88.80
9537;DHT22;4807;48.024;11.726;2023-04-24T16:43:59;12.50;85.90
9537;DHT22;4807;48.024;11.726;2023-04-24T16:47:08;12.40;86.60
9537;DHT22;4807;48.024;11.726;2023-04-24T16:50:20;12.20;85.80
9537;DHT22;4807;48.024;11.726;2023-04-24T16:53:28;12.00;86.20
9537;DHT22;4807;48.024;11.726;2023-04-24T16:56:37;11.80;90.00
9537;DHT22;4807;48.024;11.726;2023-04-24T16:59:47;11.60;87.50
9537;DHT22;4807;48.024;11.726;2023-04-24T17:02:55;11.10;84.40
9537;DHT22;4807;48.024;11.726;2023-04-24T17:06:04;11.10;86.70
9537;DHT22;4807;48.024;11.726;2023-04-24T17:09:13;11.00;85.40
9537;DHT22;4807;48.024;11.726;2023-04-24T17:12:23;11.00;86.00
9537;DHT22;4807;48.024;11.726;2023-04-24T17:15:32;10.90;84.80
9537;DHT22;4807;48.024;11.726;2023-04-24T17:18:41;10.90;87.30
9537;DHT22;4807;48.024;11.726;2023-04-24T17:21:49;10.90;87.40
9537;DHT22;4807;48.024;11.726;2023-04-24T17:24:57;10.80;87.40
9537;DHT22;4807;48.024;11.726;2023-04-24T17:28:14;10.70;86.60
9537;DHT22;4807;48.024;11.726;2023-04-24T17:31:33;10.60;87.50
9537;DHT22;4807;48.024;11.726;2023-04-24T17:34:41;10.40;88.50
9537;DHT22;4807;48.024;11.726;2023-04-24T17:37:49;10.40;88.40
9537;DHT22;4807;48.024;11.726;2023-04-24T17:40:58;10.40;87.60
9537;DHT22;4807;48.024;11.726;2023-04-24T17:44:07;10.40;88.40
9537;DHT22;4807;48.024;11.726;2023-04-24T17:47:17;10.40;89.30
9537;DHT22;4807;48.024;11.726;2023-04-24T17:50:28;10.10;90.40
9537;DHT22;4807;48.024;11.726;2023-04-24T17:53:36;10.10;89.10
9537;DHT22;4807;48.024;11.726;2023-04-24T17:56:45;10.10;87.40
9537;DHT22;4807;48.024;11.726;2023-04-24T17:59:54;9.90;90.10
9537;DHT22;4807;48.024;11.726;2023-04-24T18:03:05;9.70;90.00
9537;DHT22;4807;48.024;11.726;2023-04-24T18:06:14;9.70;91.00
9537;DHT22;4807;48.024;11.726;2023-04-24T18:09:24;9.40;91.50
9537;DHT22;4807;48.024;11.726;2023-04-24T18:12:32;9.20;91.80
9537;DHT22;4807;48.024;11.726;2023-04-24T18:15:41;9.00;92.00
9537;DHT22;4807;48.024;11.726;2023-04-24T18:18:51;9.00;92.10
9537;DHT22;4807;48.024;11.726;2023-04-24T18:21:59;8.90;92.30
9537;DHT22;4807;48.024;11.726;2023-04-24T18:25:08;8.80;92.60
9537;DHT22;4807;48.024;11.726;2023-04-24T18:28:17;8.50;93.10
9537;DHT22;4807;48.024;11.726;2023-04-24T18:31:25;8.20;93.20
9537;DHT22;4807;48.024;11.726;2023-04-24T18:34:36;8.10;93.50
9537;DHT22;4807;48.024;11.726;2023-04-24T18:37:44;8.00;94.40
9537;DHT22;4807;48.024;11.726;2023-04-24T18:40:53;8.00;94.10
9537;DHT22;4807;48.024;11.726;2023-04-24T18:44:01;7.80;94.70
9537;DHT22;4807;48.024;11.726;2023-04-24T18:47:10;7.70;94.90
9537;DHT22;4807;48.024;11.726;2023-04-24T18:50:20;7.70;95.00
9537;DHT22;4807;48.024;11.726;2023-04-24T18:53:28;7.70;95.40
9537;DHT22;4807;48.024;11.726;2023-04-24T18:56:37;7.60;95.00
9537;DHT22;4807;48.024;11.726;2023-04-24T18:59:45;7.60;95.30
9537;DHT22;4807;48.024;11.726;2023-04-24T19:02:53;7.60;95.50
9537;DHT22;4807;48.024;11.726;2023-04-24T19:06:04;7.60;95.70
9537;DHT22;4807;48.024;11.726;2023-04-24T19:09:13;7.50;96.00
9537;DHT22;4807;48.024;11.726;2023-04-24T19:12:22;7.50;96.40
9537;DHT22;4807;48.024;11.726;2023-04-24T19:15:30;7.50;96.70
9537;DHT22;4807;48.024;11.726;2023-04-24T19:18:39;7.50;97.20
9537;DHT22;4807;48.024;11.726;2023-04-24T19:21:49;7.50;97.10
9537;DHT22;4807;48.024;11.726;2023-04-24T19:24:57;7.50;97.60
9537;DHT22;4807;48.024;11.726;2023-04-24T19:28:06;7.50;97.60
9537;DHT22;4807;48.024;11.726;2023-04-24T19:31:15;7.70;97.70
9537;DHT22;4807;48.024;11.726;2023-04-24T19:34:23;7.60;97.90
9537;DHT22;4807;48.024;11.726;2023-04-24T19:37:34;7.80;97.70
9537;DHT22;4807;48.024;11.726;2023-04-24T19:40:43;7.80;97.60
9537;DHT22;4807;48.024;11.726;2023-04-24T19:43:52;8.00;97.70
9537;DHT22;4807;48.024;11.726;2023-04-24T19:47:00;8.10;97.40
9537;DHT22;4807;48.024;11.726;2023-04-24T19:50:08;8.10;97.60
9537;DHT22;4807;48.024;11.726;2023-04-24T19:53:18;8.10;97.90
9537;DHT22;4807;48.024;11.726;2023-04-24T19:56:27;8.10;98.80
9537;DHT22;4807;48.024;11.726;2023-04-24T19:59:35;8.00;99.20
9537;DHT22;4807;48.024;11.726;2023-04-24T20:02:44;7.90;99.50
9537;DHT22;4807;48.024;11.726;2023-04-24T20:05:52;7.90;99.90
9537;DHT22;4807;48.024;11.726;2023-04-24T20:09:01;8.00;99.90
9537;DHT22;4807;48.024;11.726;2023-04-24T20:12:11;8.00;99.90
9537;DHT22;4807;48.024;11.726;2023-04-24T20:15:19;8.00;99.90
9537;DHT22;4807;48.024;11.726;2023-04-24T20:18:28;8.00;99.90
9537;DHT22;4807;48.024;11.726;2023-04-24T20:21:36;8.10;99.90
9537;DHT22;4807;48.024;11.726;2023-04-24T20:24:46;8.00;99.90
9537;DHT22;4807;48.024;11.726;2023-04-24T20:27:56;8.00;99.90